sensor_id;sensor_type;location;lat;lon;timestamp;pressure;altitude;pressure_sealevel;temperature;humidity
70248;BME280;57641;51.416;5.506;2023-02-14T00:00:25;103569.72;;;8.19;56.26
70248;BME280;57641;51.416;5.506;2023-02-14T00:02:51;103567.13;;;8.18;55.70
70248;BME280;57641;51.416;5.506;2023-02-14T00:05:16;103578.72;;;8.15;55.32
70248;BME280;57641;51.416;5.506;2023-02-14T00:07:43;103571.91;;;8.10;55.29
70248;BME280;57641;51.416;5.506;2023-02-14T00:10:10;103570.31;;;8.05;55.63
70248;BME280;57641;51.416;5.506;2023-02-14T00:12:35;103563.50;;;8.00;55.71
70248;BME280;57641;51.416;5.506;2023-02-14T00:15:00;103569.72;;;7.99;55.55
70248;BME280;57641;51.416;5.506;2023-02-14T00:17:45;103567.44;;;7.91;55.50
70248;BME280;57641;51.416;5.506;2023-02-14T00:20:11;103563.94;;;7.91;55.52
70248;BME280;57641;51.416;5.506;2023-02-14T00:22:36;103563.94;;;7.91;56.04
70248;BME280;57641;51.416;5.506;2023-02-14T00:25:02;103560.56;;;7.87;55.81
70248;BME280;57641;51.416;5.506;2023-02-14T00:27:28;103564.25;;;7.83;55.74
70248;BME280;57641;51.416;5.506;2023-02-14T00:29:54;103549.28;;;7.82;55.29
70248;BME280;57641;51.416;5.506;2023-02-14T00:32:22;103548.63;;;7.77;55.46
70248;BME280;57641;51.416;5.506;2023-02-14T00:34:49;103557.59;;;7.75;55.81
70248;BME280;57641;51.416;5.506;2023-02-14T00:37:14;103554.13;;;7.73;56.08
70248;BME280;57641;51.416;5.506;2023-02-14T00:39:39;103547.16;;;7.70;55.66
70248;BME280;57641;51.416;5.506;2023-02-14T00:42:05;103556.13;;;7.68;55.79
70248;BME280;57641;51.416;5.506;2023-02-14T00:44:31;103559.84;;;7.63;55.56
70248;BME280;57641;51.416;5.506;2023-02-14T00:46:57;103558.13;;;7.62;55.18
70248;BME280;57641;51.416;5.506;2023-02-14T00:49:23;103549.44;;;7.59;55.11
70248;BME280;57641;51.416;5.506;2023-02-14T00:51:48;103543.47;;;7.54;55.33
70248;BME280;57641;51.416;5.506;2023-02-14T00:54:14;103547.91;;;7.53;55.29
70248;BME280;57641;51.416;5.506;2023-02-14T00:56:39;103541.88;;;7.50;55.57
70248;BME280;57641;51.416;5.506;2023-02-14T00:59:08;103539.34;;;7.47;55.63
70248;BME280;57641;51.416;5.506;2023-02-14T01:01:34;103542.00;;;7.47;55.58
70248;BME280;57641;51.416;5.506;2023-02-14T01:04:04;103539.56;;;7.42;55.42
70248;BME280;57641;51.416;5.506;2023-02-14T01:06:30;103545.00;;;7.39;55.34
70248;BME280;57641;51.416;5.506;2023-02-14T01:08:56;103552.09;;;7.39;54.92
70248;BME280;57641;51.416;5.506;2023-02-14T01:11:24;103539.91;;;7.35;55.76
70248;BME280;57641;51.416;5.506;2023-02-14T01:13:51;103546.13;;;7.34;55.65
70248;BME280;57641;51.416;5.506;2023-02-14T01:16:21;103548.91;;;7.31;55.53
70248;BME280;57641;51.416;5.506;2023-02-14T01:18:48;103549.81;;;7.30;55.47
70248;BME280;57641;51.416;5.506;2023-02-14T01:23:47;103547.59;;;7.20;55.49
70248;BME280;57641;51.416;5.506;2023-02-14T01:26:16;103546.91;;;7.15;55.63
70248;BME280;57641;51.416;5.506;2023-02-14T01:28:43;103547.06;;;7.12;55.38
70248;BME280;57641;51.416;5.506;2023-02-14T01:31:19;103555.94;;;7.11;55.25
70248;BME280;57641;51.416;5.506;2023-02-14T01:33:46;103548.13;;;7.08;55.73
70248;BME280;57641;51.416;5.506;2023-02-14T01:36:23;103541.09;;;7.07;55.92
70248;BME280;57641;51.416;5.506;2023-02-14T01:38:51;103549.16;;;7.04;56.02
70248;BME280;57641;51.416;5.506;2023-02-14T01:41:18;103551.09;;;7.01;56.12
70248;BME280;57641;51.416;5.506;2023-02-14T01:43:55;103555.56;;;6.99;55.66
70248;BME280;57641;51.416;5.506;2023-02-14T01:46:23;103557.44;;;6.97;56.35
70248;BME280;57641;51.416;5.506;2023-02-14T01:48:49;103555.66;;;6.97;55.61
70248;BME280;57641;51.416;5.506;2023-02-14T01:51:17;103556.53;;;6.98;55.96
70248;BME280;57641;51.416;5.506;2023-02-14T01:53:44;103560.00;;;6.98;55.79
70248;BME280;57641;51.416;5.506;2023-02-14T01:56:14;103556.59;;;6.96;55.91
70248;BME280;57641;51.416;5.506;2023-02-14T01:58:44;103566.31;;;6.96;55.93
70248;BME280;57641;51.416;5.506;2023-02-14T02:01:13;103562.88;;;6.94;56.08
70248;BME280;57641;51.416;5.506;2023-02-14T02:03:50;103556.69;;;6.93;55.96
70248;BME280;57641;51.416;5.506;2023-02-14T02:06:26;103550.66;;;6.90;55.93
70248;BME280;57641;51.416;5.506;2023-02-14T02:09:07;103542.75;;;6.88;55.66
70248;BME280;57641;51.416;5.506;2023-02-14T02:11:35;103549.06;;;6.86;55.85
70248;BME280;57641;51.416;5.506;2023-02-14T02:14:03;103542.03;;;6.85;55.65
70248;BME280;57641;51.416;5.506;2023-02-14T02:19:36;103537.03;;;6.77;56.01
70248;BME280;57641;51.416;5.506;2023-02-14T02:44:43;103528.38;;;6.52;56.57
70248;BME280;57641;51.416;5.506;2023-02-14T02:50:25;103514.91;;;6.56;56.39
70248;BME280;57641;51.416;5.506;2023-02-14T02:53:42;103517.03;;;6.48;56.81
70248;BME280;57641;51.416;5.506;2023-02-14T02:56:21;103524.25;;;6.45;56.86
70248;BME280;57641;51.416;5.506;2023-02-14T02:59:32;103522.34;;;6.48;56.87
70248;BME280;57641;51.416;5.506;2023-02-14T03:04:33;103528.31;;;6.53;56.64
70248;BME280;57641;51.416;5.506;2023-02-14T03:07:38;103531.00;;;6.52;56.49
70248;BME280;57641;51.416;5.506;2023-02-14T03:10:18;103527.69;;;6.47;56.84
70248;BME280;57641;51.416;5.506;2023-02-14T03:15:34;103538.28;;;6.47;56.70
70248;BME280;57641;51.416;5.506;2023-02-14T03:18:09;103534.00;;;6.44;56.98
70248;BME280;57641;51.416;5.506;2023-02-14T03:20:52;103548.09;;;6.45;56.75
70248;BME280;57641;51.416;5.506;2023-02-14T03:23:24;103538.44;;;6.44;56.88
70248;BME280;57641;51.416;5.506;2023-02-14T03:26:30;103545.56;;;6.42;56.78
70248;BME280;57641;51.416;5.506;2023-02-14T03:34:20;103536.06;;;6.36;56.99
70248;BME280;57641;51.416;5.506;2023-02-14T03:37:20;103546.47;;;6.41;56.70
70248;BME280;57641;51.416;5.506;2023-02-14T03:40:43;103548.25;;;6.40;56.71
70248;BME280;57641;51.416;5.506;2023-02-14T03:42:55;103540.25;;;6.42;56.93
70248;BME280;57641;51.416;5.506;2023-02-14T03:45:48;103548.22;;;6.42;56.57
70248;BME280;57641;51.416;5.506;2023-02-14T03:48:18;103550.19;;;6.36;57.01
70248;BME280;57641;51.416;5.506;2023-02-14T03:50:49;103546.72;;;6.34;56.99
70248;BME280;57641;51.416;5.506;2023-02-14T03:53:20;103540.44;;;6.37;56.70
70248;BME280;57641;51.416;5.506;2023-02-14T03:55:53;103545.69;;;6.39;56.59
70248;BME280;57641;51.416;5.506;2023-02-14T04:00:50;103542.97;;;6.40;56.53
70248;BME280;57641;51.416;5.506;2023-02-14T04:03:24;103541.13;;;6.42;56.43
70248;BME280;57641;51.416;5.506;2023-02-14T04:05:52;103536.88;;;6.38;56.49
70248;BME280;57641;51.416;5.506;2023-02-14T04:08:24;103540.44;;;6.37;56.68
70248;BME280;57641;51.416;5.506;2023-02-14T04:10:51;103543.91;;;6.39;56.94
70248;BME280;57641;51.416;5.506;2023-02-14T04:13:17;103549.22;;;6.39;56.81
70248;BME280;57641;51.416;5.506;2023-02-14T04:15:43;103544.81;;;6.38;56.87
70248;BME280;57641;51.416;5.506;2023-02-14T04:18:12;103549.31;;;6.36;56.66
70248;BME280;57641;51.416;5.506;2023-02-14T04:20:56;103542.53;;;6.29;56.70
70248;BME280;57641;51.416;5.506;2023-02-14T04:23:21;103532.97;;;6.25;57.06
70248;BME280;57641;51.416;5.506;2023-02-14T04:25:47;103539.94;;;6.27;56.80
70248;BME280;57641;51.416;5.506;2023-02-14T04:28:13;103544.31;;;6.28;56.56
70248;BME280;57641;51.416;5.506;2023-02-14T04:30:38;103542.47;;;6.30;57.00
70248;BME280;57641;51.416;5.506;2023-02-14T04:33:04;103541.59;;;6.30;56.32
70248;BME280;57641;51.416;5.506;2023-02-14T04:35:33;103544.25;;;6.30;56.62
70248;BME280;57641;51.416;5.506;2023-02-14T04:38:00;103538.03;;;6.31;56.70
70248;BME280;57641;51.416;5.506;2023-02-14T04:40:27;103535.44;;;6.29;57.23
70248;BME280;57641;51.416;5.506;2023-02-14T04:42:53;103539.91;;;6.29;56.96
70248;BME280;57641;51.416;5.506;2023-02-14T04:45:18;103538.09;;;6.29;56.71
70248;BME280;57641;51.416;5.506;2023-02-14T04:47:45;103531.13;;;6.27;56.90
70248;BME280;57641;51.416;5.506;2023-02-14T04:50:14;103531.00;;;6.30;56.74
70248;BME280;57641;51.416;5.506;2023-02-14T04:52:42;103528.44;;;6.28;56.86
70248;BME280;57641;51.416;5.506;2023-02-14T04:55:12;103533.59;;;6.31;56.84
70248;BME280;57641;51.416;5.506;2023-02-14T04:57:37;103526.56;;;6.30;56.65
70248;BME280;57641;51.416;5.506;2023-02-14T05:00:04;103523.88;;;6.32;56.84
70248;BME280;57641;51.416;5.506;2023-02-14T05:02:30;103523.88;;;6.32;56.61
70248;BME280;57641;51.416;5.506;2023-02-14T05:04:59;103528.28;;;6.31;56.67
70248;BME280;57641;51.416;5.506;2023-02-14T05:07:25;103521.22;;;6.32;56.55
70248;BME280;57641;51.416;5.506;2023-02-14T05:09:54;103520.28;;;6.33;56.68
70248;BME280;57641;51.416;5.506;2023-02-14T05:12:19;103516.97;;;6.28;56.51
70248;BME280;57641;51.416;5.506;2023-02-14T05:14:45;103517.75;;;6.30;56.50
70248;BME280;57641;51.416;5.506;2023-02-14T05:17:11;103513.41;;;6.29;56.39
70248;BME280;57641;51.416;5.506;2023-02-14T05:19:37;103507.25;;;6.28;56.47
70248;BME280;57641;51.416;5.506;2023-02-14T05:22:03;103515.25;;;6.27;56.56
70248;BME280;57641;51.416;5.506;2023-02-14T05:24:28;103504.63;;;6.27;56.46
70248;BME280;57641;51.416;5.506;2023-02-14T05:26:54;103502.19;;;6.22;56.72
70248;BME280;57641;51.416;5.506;2023-02-14T05:29:20;103501.19;;;6.25;56.47
70248;BME280;57641;51.416;5.506;2023-02-14T05:31:45;103502.19;;;6.22;56.66
70248;BME280;57641;51.416;5.506;2023-02-14T05:34:11;103498.94;;;6.14;56.79
70248;BME280;57641;51.416;5.506;2023-02-14T05:36:37;103497.94;;;6.18;56.77
70248;BME280;57641;51.416;5.506;2023-02-14T05:39:06;103497.13;;;6.16;57.20
70248;BME280;57641;51.416;5.506;2023-02-14T05:41:32;103499.56;;;6.21;57.34
70248;BME280;57641;51.416;5.506;2023-02-14T05:43:58;103503.28;;;6.17;56.89
70248;BME280;57641;51.416;5.506;2023-02-14T05:46:27;103503.34;;;6.15;56.76
70248;BME280;57641;51.416;5.506;2023-02-14T05:48:53;103505.88;;;6.18;56.89
70248;BME280;57641;51.416;5.506;2023-02-14T05:51:18;103499.81;;;6.15;56.94
70248;BME280;57641;51.416;5.506;2023-02-14T05:53:44;103494.66;;;6.12;56.70
70248;BME280;57641;51.416;5.506;2023-02-14T05:56:10;103502.69;;;6.09;56.48
70248;BME280;57641;51.416;5.506;2023-02-14T05:58:37;103494.75;;;6.09;56.79
70248;BME280;57641;51.416;5.506;2023-02-14T06:01:02;103501.97;;;6.05;56.51
70248;BME280;57641;51.416;5.506;2023-02-14T06:03:28;103504.66;;;6.04;56.95
70248;BME280;57641;51.416;5.506;2023-02-14T06:05:54;103495.06;;;6.01;56.72
70248;BME280;57641;51.416;5.506;2023-02-14T06:08:20;103503.88;;;6.02;57.18
70248;BME280;57641;51.416;5.506;2023-02-14T06:10:45;103504.75;;;6.02;56.68
70248;BME280;57641;51.416;5.506;2023-02-14T06:13:11;103498.63;;;6.00;56.42
70248;BME280;57641;51.416;5.506;2023-02-14T06:15:41;103510.19;;;5.98;56.66
70248;BME280;57641;51.416;5.506;2023-02-14T06:18:07;103501.47;;;5.96;56.77
70248;BME280;57641;51.416;5.506;2023-02-14T06:20:33;103512.09;;;5.94;56.67
70248;BME280;57641;51.416;5.506;2023-02-14T06:23:00;103514.69;;;5.96;57.07
70248;BME280;57641;51.416;5.506;2023-02-14T06:25:26;103512.09;;;5.94;56.98
70248;BME280;57641;51.416;5.506;2023-02-14T06:27:55;103506.75;;;5.96;56.84
70248;BME280;57641;51.416;5.506;2023-02-14T06:30:21;103508.41;;;5.98;56.58
70248;BME280;57641;51.416;5.506;2023-02-14T06:32:47;103508.53;;;5.95;56.75
70248;BME280;57641;51.416;5.506;2023-02-14T06:35:14;103508.72;;;5.90;56.58
70248;BME280;57641;51.416;5.506;2023-02-14T06:37:39;103514.78;;;5.92;56.49
70248;BME280;57641;51.416;5.506;2023-02-14T06:40:08;103518.50;;;5.88;56.52
70248;BME280;57641;51.416;5.506;2023-02-14T06:42:34;103525.63;;;5.86;56.96
70248;BME280;57641;51.416;5.506;2023-02-14T06:44:59;103522.06;;;5.87;56.77
70248;BME280;57641;51.416;5.506;2023-02-14T06:47:27;103525.63;;;5.86;56.54
70248;BME280;57641;51.416;5.506;2023-02-14T06:49:53;103522.16;;;5.84;56.58
70248;BME280;57641;51.416;5.506;2023-02-14T06:52:21;103516.91;;;5.83;56.79
70248;BME280;57641;51.416;5.506;2023-02-14T06:54:47;103524.06;;;5.81;56.56
70248;BME280;57641;51.416;5.506;2023-02-14T06:57:13;103520.59;;;5.79;56.48
70248;BME280;57641;51.416;5.506;2023-02-14T06:59:39;103513.50;;;5.79;56.53
70248;BME280;57641;51.416;5.506;2023-02-14T07:02:04;103517.13;;;5.77;56.87
70248;BME280;57641;51.416;5.506;2023-02-14T07:04:30;103512.69;;;5.77;57.35
70248;BME280;57641;51.416;5.506;2023-02-14T07:06:59;103520.63;;;5.77;57.24
70248;BME280;57641;51.416;5.506;2023-02-14T07:09:26;103518.06;;;5.76;57.29
70248;BME280;57641;51.416;5.506;2023-02-14T07:11:51;103511.91;;;5.75;57.18
70248;BME280;57641;51.416;5.506;2023-02-14T07:14:20;103523.28;;;5.77;56.95
70248;BME280;57641;51.416;5.506;2023-02-14T07:16:47;103534.88;;;5.75;57.34
70248;BME280;57641;51.416;5.506;2023-02-14T07:19:13;103533.00;;;5.77;57.44
70248;BME280;57641;51.416;5.506;2023-02-14T07:21:39;103534.75;;;5.78;57.55
70248;BME280;57641;51.416;5.506;2023-02-14T07:24:08;103532.97;;;5.78;57.40
70248;BME280;57641;51.416;5.506;2023-02-14T07:26:33;103533.78;;;5.80;57.34
70248;BME280;57641;51.416;5.506;2023-02-14T07:28:59;103530.25;;;5.80;57.38
70248;BME280;57641;51.416;5.506;2023-02-14T07:31:24;103534.66;;;5.81;57.39
70248;BME280;57641;51.416;5.506;2023-02-14T07:33:51;103526.75;;;5.79;57.45
70248;BME280;57641;51.416;5.506;2023-02-14T07:36:17;103522.38;;;5.78;57.50
70248;BME280;57641;51.416;5.506;2023-02-14T07:38:44;103524.16;;;5.78;57.57
70248;BME280;57641;51.416;5.506;2023-02-14T07:41:11;103529.34;;;5.81;57.83
70248;BME280;57641;51.416;5.506;2023-02-14T07:43:45;103525.66;;;5.85;57.76
70248;BME280;57641;51.416;5.506;2023-02-14T07:46:11;103531.78;;;5.87;58.32
70248;BME280;57641;51.416;5.506;2023-02-14T07:48:37;103528.25;;;5.86;57.95
70248;BME280;57641;51.416;5.506;2023-02-14T07:51:03;103529.94;;;5.89;58.05
70248;BME280;57641;51.416;5.506;2023-02-14T07:53:30;103530.75;;;5.91;58.12
70248;BME280;57641;51.416;5.506;2023-02-14T07:55:56;103525.34;;;5.94;57.92
70248;BME280;57641;51.416;5.506;2023-02-14T07:58:22;103528.72;;;5.98;58.43
70248;BME280;57641;51.416;5.506;2023-02-14T08:00:48;103530.47;;;5.99;58.32
70248;BME280;57641;51.416;5.506;2023-02-14T08:03:16;103529.50;;;6.01;58.33
70248;BME280;57641;51.416;5.506;2023-02-14T08:05:43;103523.16;;;6.05;58.38
70248;BME280;57641;51.416;5.506;2023-02-14T08:08:09;103520.44;;;6.07;58.58
70248;BME280;57641;51.416;5.506;2023-02-14T08:10:37;103516.63;;;6.14;58.66
70248;BME280;57641;51.416;5.506;2023-02-14T08:13:03;103514.59;;;6.20;58.87
70248;BME280;57641;51.416;5.506;2023-02-14T08:15:33;103513.56;;;6.24;58.90
70248;BME280;57641;51.416;5.506;2023-02-14T08:18:19;103513.63;;;6.23;58.93
70248;BME280;57641;51.416;5.506;2023-02-14T08:20:46;103509.03;;;6.28;59.33
70248;BME280;57641;51.416;5.506;2023-02-14T08:23:16;103513.22;;;6.33;59.79
70248;BME280;57641;51.416;5.506;2023-02-14T08:25:42;103515.63;;;6.40;59.56
70248;BME280;57641;51.416;5.506;2023-02-14T08:28:11;103517.75;;;6.52;60.43
70248;BME280;57641;51.416;5.506;2023-02-14T08:30:42;103514.06;;;6.56;59.82
70248;BME280;57641;51.416;5.506;2023-02-14T08:33:09;103510.25;;;6.63;60.20
70248;BME280;57641;51.416;5.506;2023-02-14T08:35:37;103508.88;;;6.74;60.08
70248;BME280;57641;51.416;5.506;2023-02-14T08:38:04;103506.75;;;6.83;60.24
70248;BME280;57641;51.416;5.506;2023-02-14T08:40:30;103505.44;;;6.93;60.47
70248;BME280;57641;51.416;5.506;2023-02-14T08:42:57;103504.31;;;6.98;61.31
70248;BME280;57641;51.416;5.506;2023-02-14T08:45:23;103510.84;;;7.11;61.01
70248;BME280;57641;51.416;5.506;2023-02-14T08:47:49;103509.47;;;7.23;60.44
70248;BME280;57641;51.416;5.506;2023-02-14T08:50:17;103503.78;;;7.31;60.48
70248;BME280;57641;51.416;5.506;2023-02-14T08:52:44;103507.75;;;7.41;61.26
70248;BME280;57641;51.416;5.506;2023-02-14T08:55:13;103511.41;;;7.58;60.98
70248;BME280;57641;51.416;5.506;2023-02-14T08:57:40;103505.44;;;7.72;61.17
70248;BME280;57641;51.416;5.506;2023-02-14T09:00:10;103500.47;;;7.85;61.50
70248;BME280;57641;51.416;5.506;2023-02-14T09:02:36;103501.97;;;7.90;61.59
70248;BME280;57641;51.416;5.506;2023-02-14T09:05:03;103513.81;;;8.02;62.12
70248;BME280;57641;51.416;5.506;2023-02-14T09:07:28;103506.91;;;8.17;62.21
70248;BME280;57641;51.416;5.506;2023-02-14T09:09:54;103508.09;;;8.30;62.56
70248;BME280;57641;51.416;5.506;2023-02-14T09:12:20;103509.28;;;8.41;62.78
70248;BME280;57641;51.416;5.506;2023-02-14T09:14:46;103512.28;;;8.53;63.95
70248;BME280;57641;51.416;5.506;2023-02-14T09:17:15;103502.69;;;8.67;64.30
70248;BME280;57641;51.416;5.506;2023-02-14T09:19:41;103510.13;;;8.78;63.99
70248;BME280;57641;51.416;5.506;2023-02-14T09:22:11;103509.53;;;8.90;63.82
70248;BME280;57641;51.416;5.506;2023-02-14T09:24:38;103508.03;;;8.84;64.80
70248;BME280;57641;51.416;5.506;2023-02-14T09:27:04;103508.22;;;8.99;64.35
70248;BME280;57641;51.416;5.506;2023-02-14T09:29:40;103505.75;;;8.94;64.33
70248;BME280;57641;51.416;5.506;2023-02-14T09:32:12;103501.47;;;9.09;65.22
70248;BME280;57641;51.416;5.506;2023-02-14T09:34:41;103500.13;;;9.17;64.80
70248;BME280;57641;51.416;5.506;2023-02-14T09:37:12;103504.97;;;9.26;64.45
70248;BME280;57641;51.416;5.506;2023-02-14T09:39:38;103501.91;;;9.34;64.68
70248;BME280;57641;51.416;5.506;2023-02-14T09:42:19;103495.84;;;9.48;64.75
70248;BME280;57641;51.416;5.506;2023-02-14T09:44:52;103493.56;;;9.57;65.13
70248;BME280;57641;51.416;5.506;2023-02-14T09:48:01;103488.38;;;9.71;64.64
70248;BME280;57641;51.416;5.506;2023-02-14T09:50:32;103491.38;;;9.81;64.34
70248;BME280;57641;51.416;5.506;2023-02-14T09:53:12;103495.59;;;9.85;63.62
70248;BME280;57641;51.416;5.506;2023-02-14T09:55:54;103489.00;;;9.92;64.44
70248;BME280;57641;51.416;5.506;2023-02-14T09:58:37;103495.34;;;10.05;63.66
70248;BME280;57641;51.416;5.506;2023-02-14T10:01:16;103495.66;;;10.16;63.93
70248;BME280;57641;51.416;5.506;2023-02-14T10:03:58;103497.91;;;10.24;63.61
70248;BME280;57641;51.416;5.506;2023-02-14T10:09:26;103480.56;;;10.47;63.03
70248;BME280;57641;51.416;5.506;2023-02-14T10:11:57;103481.19;;;10.52;63.96
70248;BME280;57641;51.416;5.506;2023-02-14T10:14:29;103477.13;;;10.61;63.39
70248;BME280;57641;51.416;5.506;2023-02-14T10:17:14;103478.91;;;10.60;62.76
70248;BME280;57641;51.416;5.506;2023-02-14T10:19:51;103472.69;;;10.75;62.52
70248;BME280;57641;51.416;5.506;2023-02-14T10:22:39;103474.91;;;10.83;62.21
70248;BME280;57641;51.416;5.506;2023-02-14T10:25:25;103468.50;;;10.85;61.65
70248;BME280;57641;51.416;5.506;2023-02-14T10:27:55;103469.03;;;10.92;61.56
70248;BME280;57641;51.416;5.506;2023-02-14T10:30:25;103473.06;;;10.99;60.65
70248;BME280;57641;51.416;5.506;2023-02-14T10:35:49;103467.34;;;11.19;60.51
70248;BME280;57641;51.416;5.506;2023-02-14T10:41:22;103460.13;;;11.50;59.91
70248;BME280;57641;51.416;5.506;2023-02-14T10:44:20;103459.75;;;11.56;59.22
70248;BME280;57641;51.416;5.506;2023-02-14T10:49:58;103463.84;;;11.75;57.67
70248;BME280;57641;51.416;5.506;2023-02-14T10:55:39;103444.25;;;12.03;57.70
70248;BME280;57641;51.416;5.506;2023-02-14T10:58:11;103438.09;;;12.15;57.99
70248;BME280;57641;51.416;5.506;2023-02-14T11:01:07;103439.06;;;12.14;56.05
70248;BME280;57641;51.416;5.506;2023-02-14T11:03:39;103436.28;;;12.16;55.81
70248;BME280;57641;51.416;5.506;2023-02-14T11:06:09;103432.78;;;12.28;55.29
70248;BME280;57641;51.416;5.506;2023-02-14T11:08:37;103434.13;;;12.48;55.52
70248;BME280;57641;51.416;5.506;2023-02-14T11:11:24;103435.03;;;12.61;54.11
70248;BME280;57641;51.416;5.506;2023-02-14T11:13:53;103432.81;;;12.67;53.50
70248;BME280;57641;51.416;5.506;2023-02-14T11:16:31;103437.34;;;12.92;53.78
70248;BME280;57641;51.416;5.506;2023-02-14T11:21:41;103423.88;;;13.19;53.89
70248;BME280;57641;51.416;5.506;2023-02-14T11:24:24;103421.84;;;13.23;52.59
70248;BME280;57641;51.416;5.506;2023-02-14T11:26:50;103426.97;;;13.38;52.54
70248;BME280;57641;51.416;5.506;2023-02-14T11:32:22;103414.28;;;13.66;52.78
70248;BME280;57641;51.416;5.506;2023-02-14T11:35:16;103410.47;;;13.81;52.59
70248;BME280;57641;51.416;5.506;2023-02-14T11:37:49;103408.31;;;13.86;52.18
70248;BME280;57641;51.416;5.506;2023-02-14T11:40:38;103405.63;;;13.86;52.04
70248;BME280;57641;51.416;5.506;2023-02-14T11:45:42;103394.97;;;13.97;51.45
70248;BME280;57641;51.416;5.506;2023-02-14T11:48:19;103391.41;;;14.09;51.36
70248;BME280;57641;51.416;5.506;2023-02-14T11:53:24;103375.16;;;14.34;51.08
70248;BME280;57641;51.416;5.506;2023-02-14T11:55:56;103377.06;;;14.45;50.78
70248;BME280;57641;51.416;5.506;2023-02-14T11:58:31;103371.13;;;14.53;50.38
70248;BME280;57641;51.416;5.506;2023-02-14T12:01:01;103364.94;;;14.63;50.29
70248;BME280;57641;51.416;5.506;2023-02-14T12:03:45;103358.09;;;14.70;49.33
70248;BME280;57641;51.416;5.506;2023-02-14T12:06:22;103358.47;;;14.77;49.45
70248;BME280;57641;51.416;5.506;2023-02-14T12:08:49;103358.09;;;14.82;49.60
70248;BME280;57641;51.416;5.506;2023-02-14T12:11:20;103348.22;;;14.82;49.24
70248;BME280;57641;51.416;5.506;2023-02-14T12:13:56;103346.41;;;14.83;48.45
70248;BME280;57641;51.416;5.506;2023-02-14T12:16:33;103350.31;;;14.90;47.84
70248;BME280;57641;51.416;5.506;2023-02-14T12:19:36;103338.94;;;14.97;47.81
70248;BME280;57641;51.416;5.506;2023-02-14T12:22:09;103329.69;;;15.01;48.35
70248;BME280;57641;51.416;5.506;2023-02-14T12:27:23;103321.59;;;15.12;47.82
70248;BME280;57641;51.416;5.506;2023-02-14T12:30:20;103319.28;;;15.19;47.64
70248;BME280;57641;51.416;5.506;2023-02-14T12:32:54;103313.53;;;15.12;47.49
70248;BME280;57641;51.416;5.506;2023-02-14T12:43:47;103307.19;;;15.13;47.45
70248;BME280;57641;51.416;5.506;2023-02-14T12:49:24;103296.06;;;15.29;46.65
70248;BME280;57641;51.416;5.506;2023-02-14T12:57:13;103298.25;;;15.35;46.24
70248;BME280;57641;51.416;5.506;2023-02-14T13:06:16;103281.25;;;15.46;46.67
70248;BME280;57641;51.416;5.506;2023-02-14T13:22:39;103274.06;;;15.57;46.07
70248;BME280;57641;51.416;5.506;2023-02-14T13:25:19;103260.59;;;15.57;46.23
70248;BME280;57641;51.416;5.506;2023-02-14T13:27:56;103246.50;;;15.65;45.99
70248;BME280;57641;51.416;5.506;2023-02-14T13:30:29;103250.78;;;15.68;46.04
70248;BME280;57641;51.416;5.506;2023-02-14T13:33:04;103245.59;;;15.76;46.10
70248;BME280;57641;51.416;5.506;2023-02-14T13:35:31;103244.50;;;15.78;45.90
70248;BME280;57641;51.416;5.506;2023-02-14T13:38:01;103240.72;;;15.81;45.52
70248;BME280;57641;51.416;5.506;2023-02-14T13:40:29;103240.72;;;15.81;45.69
70248;BME280;57641;51.416;5.506;2023-02-14T13:43:05;103244.69;;;15.86;45.82
70248;BME280;57641;51.416;5.506;2023-02-14T13:48:08;103237.25;;;15.90;45.50
70248;BME280;57641;51.416;5.506;2023-02-14T13:53:46;103229.56;;;15.85;45.48
70248;BME280;57641;51.416;5.506;2023-02-14T13:59:02;103227.00;;;15.84;45.56
70248;BME280;57641;51.416;5.506;2023-02-14T14:01:34;103228.09;;;15.81;45.78
70248;BME280;57641;51.416;5.506;2023-02-14T14:17:31;103212.91;;;15.91;44.93
70248;BME280;57641;51.416;5.506;2023-02-14T14:19:59;103204.22;;;15.88;45.08
70248;BME280;57641;51.416;5.506;2023-02-14T14:22:26;103203.84;;;15.92;44.87
70248;BME280;57641;51.416;5.506;2023-02-14T14:24:55;103204.97;;;15.90;45.31
70248;BME280;57641;51.416;5.506;2023-02-14T14:27:32;103204.00;;;15.91;45.05
70248;BME280;57641;51.416;5.506;2023-02-14T14:30:06;103202.28;;;15.90;45.14
70248;BME280;57641;51.416;5.506;2023-02-14T14:32:40;103199.59;;;15.90;45.33
70248;BME280;57641;51.416;5.506;2023-02-14T14:35:21;103196.78;;;15.91;45.26
70248;BME280;57641;51.416;5.506;2023-02-14T14:37:59;103202.00;;;15.93;45.38
70248;BME280;57641;51.416;5.506;2023-02-14T14:40:36;103197.22;;;15.96;44.74
70248;BME280;57641;51.416;5.506;2023-02-14T14:45:57;103195.06;;;15.90;44.87
70248;BME280;57641;51.416;5.506;2023-02-14T14:48:41;103195.06;;;15.90;45.03
70248;BME280;57641;51.416;5.506;2023-02-14T14:51:22;103195.19;;;15.89;45.31
70248;BME280;57641;51.416;5.506;2023-02-14T14:53:59;103185.41;;;15.88;45.70
70248;BME280;57641;51.416;5.506;2023-02-14T14:56:32;103190.91;;;15.86;45.49
70248;BME280;57641;51.416;5.506;2023-02-14T14:59:26;103187.00;;;15.90;45.65
70248;BME280;57641;51.416;5.506;2023-02-14T15:01:53;103188.47;;;15.83;45.33
70248;BME280;57641;51.416;5.506;2023-02-14T15:04:29;103183.56;;;15.88;45.51
70248;BME280;57641;51.416;5.506;2023-02-14T15:06:57;103194.31;;;15.88;45.37
70248;BME280;57641;51.416;5.506;2023-02-14T15:09:43;103185.53;;;15.86;45.23
70248;BME280;57641;51.416;5.506;2023-02-14T15:12:10;103183.69;;;15.87;45.37
70248;BME280;57641;51.416;5.506;2023-02-14T15:14:55;103182.59;;;15.89;45.33
70248;BME280;57641;51.416;5.506;2023-02-14T15:17:27;103183.44;;;15.90;45.65
70248;BME280;57641;51.416;5.506;2023-02-14T15:20:01;103182.47;;;15.91;45.41
70248;BME280;57641;51.416;5.506;2023-02-14T15:25:11;103180.34;;;15.94;45.29
70248;BME280;57641;51.416;5.506;2023-02-14T15:27:47;103174.50;;;15.89;44.88
70248;BME280;57641;51.416;5.506;2023-02-14T15:30:23;103184.41;;;15.89;44.89
70248;BME280;57641;51.416;5.506;2023-02-14T15:32:54;103179.16;;;15.87;45.28
70248;BME280;57641;51.416;5.506;2023-02-14T15:35:29;103182.72;;;15.88;44.98